Cheyenne Regional Jerry Olson Field
KCYS : rendu visible

Aérodrome :











RETROUVEZ-NOUS SUR...

 
LOGIN :

S'inscrire | Disclaimer

   EN    FR    IT 

 









Légende :    VFR   VFR Marginal   IFR   IFR Intensif   IFR Très Intensif
Visi : 
Plafond : 
>= 8 km
>= 3000ft
5 à 8 km
1000 à 3000 ft
1500m à 5 km
500 à 1000 ft
800 à 1500m
200 à 500 ft
< 800m
< 200 ft
Symboles :   Orages  Brouillard  Fortes neiges  Fortes précipitations  Vent > 20 kt






- Altitude de l'aérodrome : 6159 ft
- Code IATA : CYS


KCYS - Cheyenne Regional Jerry Olson Field

DERNIER METAR :
  • 251253Z 01005KT 10SM CLR 11/00 A3006 RMK AO2 SLP106 T01110000

METARs EXPIRÉS :
  • 251153Z 01006KT 10SM CLR 11/01 A3004 RMK AO2 SLP092 T01110006 10178 20111 53006
  • 251053Z AUTO 29015KT 10SM CLR 18/M04 A3002 RMK AO2 SLP069 T01781039

TAF KCYS
Valide du 25 à 12h jusqu'au 26 à 12h UTC


251122Z 2512/2612 28010KT P6SM FEW250
FM251600 22010KT P6SM SKC
FM251800 22012G22KT 6SM HZ FEW150
FM260100 22009KT P6SM SCT200
FM260600 29012KT P6SM SKC
FIR KZDV / Amérique du Nord



MET'MAP, la Météo Aéronautique d'un coup d'oeil ! - Copyright ORBIFLY Décembre 2007 - Disclaimer

ORBIFLY MET'MAP TEAM :

Programmation & Développement : Alexandra Zaïnal
Sur une idée originale de : Baudouin d'Aumeries
Assistance à la programmation : Marc-Olivier Méhu
Soutien technique & logistique : Manuel Goepfert

Contact : metmap@orbifly.com




SOURCES & CREDITS :

   NOAA       Earth
Advisory